createdAt,value
2023-02-23T00:01:50.553Z,7.93
2023-02-23T00:04:21.313Z,7.91
2023-02-23T00:06:52.467Z,7.93
2023-02-23T00:09:25.997Z,7.91
2023-02-23T00:11:59.316Z,7.91
2023-02-23T00:14:32.127Z,7.98
2023-02-23T00:17:04.694Z,8.00
2023-02-23T00:19:37.870Z,8.05
2023-02-23T00:22:07.845Z,8.10
2023-02-23T00:24:38.672Z,8.13
2023-02-23T00:27:08.720Z,8.17
2023-02-23T00:29:40.562Z,8.15
2023-02-23T00:32:13.558Z,8.17
2023-02-23T00:34:43.727Z,8.16
2023-02-23T00:37:14.325Z,8.20
2023-02-23T00:39:44.526Z,8.20
2023-02-23T00:42:14.726Z,8.15
2023-02-23T00:44:47.552Z,8.14
2023-02-23T00:47:20.727Z,8.12
2023-02-23T00:49:52.657Z,8.08
2023-02-23T00:52:22.569Z,8.05
2023-02-23T00:54:52.531Z,8.02
2023-02-23T00:57:22.587Z,7.89
2023-02-23T00:59:52.848Z,7.59
2023-02-23T01:02:26.011Z,7.62
2023-02-23T01:04:56.009Z,7.64
2023-02-23T01:07:28.889Z,7.66
2023-02-23T01:09:59.393Z,7.59
2023-02-23T01:12:29.590Z,7.51
2023-02-23T01:14:59.578Z,7.49
2023-02-23T01:17:32.242Z,7.52
2023-02-23T01:20:02.209Z,7.57
2023-02-23T01:22:34.575Z,7.51
2023-02-23T01:25:04.660Z,7.50
2023-02-23T01:27:36.629Z,7.45
2023-02-23T01:30:07.741Z,7.34
2023-02-23T01:32:41.604Z,7.34
2023-02-23T01:35:15.162Z,7.33
2023-02-23T01:37:46.903Z,7.36
2023-02-23T01:40:28.854Z,7.29
2023-02-23T01:43:01.577Z,7.30
2023-02-23T01:45:39.014Z,7.25
2023-02-23T01:48:17.870Z,7.26
2023-02-23T01:50:56.686Z,7.23
2023-02-23T01:53:29.244Z,7.22
2023-02-23T01:56:05.340Z,7.05
2023-02-23T01:58:36.799Z,7.07
2023-02-23T02:01:07.273Z,7.12
2023-02-23T02:03:44.610Z,7.12
2023-02-23T02:06:21.199Z,7.13
2023-02-23T02:08:57.310Z,7.05
2023-02-23T02:11:36.291Z,6.99
2023-02-23T02:14:13.955Z,6.99
2023-02-23T02:17:02.547Z,7.04
2023-02-23T02:20:14.743Z,7.07
2023-02-23T02:23:36.862Z,7.06
2023-02-23T02:26:21.139Z,7.04
2023-02-23T02:29:50.531Z,6.83
2023-02-23T02:33:11.176Z,6.94
2023-02-23T02:36:30.596Z,6.98
2023-02-23T02:39:23.340Z,7.02
2023-02-23T02:42:07.620Z,7.01
2023-02-23T02:44:51.440Z,7.02
2023-02-23T02:47:31.111Z,7.06
2023-02-23T02:50:11.561Z,7.09
2023-02-23T02:52:50.115Z,7.13
2023-02-23T02:55:27.888Z,7.03
2023-02-23T02:58:02.313Z,6.96
2023-02-23T03:00:52.154Z,7.09
2023-02-23T03:03:47.282Z,7.11
2023-02-23T03:06:31.128Z,7.13
2023-02-23T03:09:26.772Z,7.02
2023-02-23T03:12:25.172Z,7.02
2023-02-23T03:15:24.157Z,7.06
2023-02-23T03:18:21.746Z,7.15
2023-02-23T03:21:15.030Z,7.21
2023-02-23T03:24:10.005Z,7.10
2023-02-23T03:27:00.873Z,7.09
2023-02-23T03:29:52.234Z,7.10
2023-02-23T03:33:02.587Z,7.18
2023-02-23T03:35:58.728Z,7.18
2023-02-23T03:38:51.210Z,7.13
2023-02-23T03:41:37.046Z,7.13
2023-02-23T03:44:26.729Z,7.15
2023-02-23T03:47:16.179Z,7.19
2023-02-23T03:50:00.763Z,7.18
2023-02-23T03:52:52.223Z,7.21
2023-02-23T03:55:42.509Z,7.17
2023-02-23T03:58:32.934Z,7.15
2023-02-23T04:01:22.803Z,7.15
2023-02-23T04:04:12.876Z,7.19
2023-02-23T04:07:00.753Z,7.22
2023-02-23T04:09:43.574Z,7.28
2023-02-23T04:12:36.164Z,7.29
2023-02-23T04:15:11.740Z,7.25
2023-02-23T04:17:42.927Z,7.26
2023-02-23T04:20:17.721Z,7.09
2023-02-23T04:22:48.011Z,7.04
2023-02-23T04:25:22.972Z,7.02
2023-02-23T04:27:53.368Z,7.02
2023-02-23T04:30:25.977Z,6.98
2023-02-23T04:32:56.129Z,7.00
2023-02-23T04:35:31.396Z,6.98
2023-02-23T04:38:02.230Z,7.03
2023-02-23T04:40:32.719Z,7.01
2023-02-23T04:43:03.098Z,7.05
2023-02-23T04:45:33.399Z,7.07
2023-02-23T04:48:03.443Z,7.09
2023-02-23T04:50:36.642Z,6.96
2023-02-23T04:53:07.045Z,7.02
2023-02-23T04:55:37.060Z,7.04
2023-02-23T04:58:08.222Z,7.03
2023-02-23T05:00:39.462Z,7.03
2023-02-23T05:03:09.759Z,7.06
2023-02-23T05:05:42.544Z,7.09
2023-02-23T05:08:13.127Z,7.11
2023-02-23T05:10:43.601Z,7.13
2023-02-23T05:13:13.606Z,7.07
2023-02-23T05:15:43.801Z,7.09
2023-02-23T05:18:13.911Z,7.07
2023-02-23T05:20:48.256Z,7.06
2023-02-23T05:23:18.255Z,7.08
2023-02-23T05:25:48.369Z,7.09
2023-02-23T05:28:18.366Z,7.05
2023-02-23T05:30:48.444Z,7.09
2023-02-23T05:33:18.463Z,7.06
2023-02-23T05:35:51.209Z,7.14
2023-02-23T05:38:22.138Z,7.15
2023-02-23T05:40:52.247Z,7.19
2023-02-23T05:43:22.382Z,7.23
2023-02-23T05:45:52.397Z,7.27
2023-02-23T05:48:22.750Z,7.24
2023-02-23T05:50:55.344Z,7.25
2023-02-23T05:53:25.326Z,7.27
2023-02-23T05:55:55.475Z,7.23
2023-02-23T05:58:25.653Z,7.20
2023-02-23T06:00:55.800Z,7.24
2023-02-23T06:03:26.169Z,7.24
2023-02-23T06:06:01.864Z,7.26
2023-02-23T06:08:31.964Z,7.24
2023-02-23T06:11:02.026Z,7.24
2023-02-23T06:13:35.049Z,7.13
2023-02-23T06:16:05.275Z,6.97
2023-02-23T06:18:35.305Z,6.92
2023-02-23T06:21:09.257Z,6.91
2023-02-23T06:23:39.291Z,7.00
2023-02-23T06:26:09.320Z,7.00
2023-02-23T06:28:39.491Z,7.05
2023-02-23T06:31:09.802Z,7.08
2023-02-23T06:33:40.222Z,7.17
2023-02-23T06:36:14.407Z,7.21
2023-02-23T06:38:45.079Z,7.25
2023-02-23T06:41:16.170Z,7.26
2023-02-23T06:43:46.399Z,7.31
2023-02-23T06:46:16.468Z,7.31
2023-02-23T06:48:46.998Z,7.35
2023-02-23T06:51:20.040Z,7.39
2023-02-23T06:53:50.272Z,7.44
2023-02-23T06:56:20.408Z,7.49
2023-02-23T06:58:50.818Z,7.49
2023-02-23T07:01:21.455Z,7.52
2023-02-23T07:03:51.503Z,7.55
2023-02-23T07:06:24.918Z,7.58
2023-02-23T07:08:55.155Z,7.63
2023-02-23T07:11:25.168Z,7.61
2023-02-23T07:13:56.071Z,7.64
2023-02-23T07:16:27.825Z,7.71
2023-02-23T07:18:58.214Z,7.76
2023-02-23T07:21:31.989Z,7.77
2023-02-23T07:24:04.854Z,7.84
2023-02-23T07:26:35.077Z,7.84
2023-02-23T07:29:05.963Z,7.92
2023-02-23T07:31:37.868Z,7.93
2023-02-23T07:34:08.278Z,7.96
2023-02-23T07:36:41.268Z,7.98
2023-02-23T07:39:11.567Z,8.00
2023-02-23T07:41:41.734Z,8.00
2023-02-23T07:44:20.990Z,8.09
2023-02-23T07:46:52.887Z,8.23
2023-02-23T07:49:22.964Z,8.37
2023-02-23T07:51:55.547Z,8.51
2023-02-23T07:54:26.620Z,8.68
2023-02-23T07:56:56.930Z,8.87
2023-02-23T07:59:26.981Z,9.04
2023-02-23T08:01:57.002Z,8.94
2023-02-23T08:04:27.066Z,9.00
2023-02-23T08:06:59.726Z,8.87
2023-02-23T08:09:30.783Z,9.01
2023-02-23T08:12:01.004Z,9.17
2023-02-23T08:14:31.223Z,9.34
2023-02-23T08:17:01.837Z,9.47
2023-02-23T08:19:32.268Z,9.57
2023-02-23T08:22:05.669Z,9.56
2023-02-23T08:24:36.932Z,9.52
2023-02-23T08:27:07.788Z,9.51
2023-02-23T08:29:38.939Z,9.49
2023-02-23T08:32:09.772Z,9.58
2023-02-23T08:34:41.653Z,9.82
2023-02-23T08:37:15.407Z,9.95
2023-02-23T08:39:45.531Z,10.07
2023-02-23T08:42:15.555Z,10.30
2023-02-23T08:44:45.533Z,10.39
2023-02-23T08:47:16.761Z,10.41
2023-02-23T08:49:46.810Z,10.59
2023-02-23T08:52:19.671Z,10.76
2023-02-23T08:54:50.052Z,10.86
2023-02-23T08:57:20.446Z,10.89
2023-02-23T08:59:50.446Z,10.91
2023-02-23T09:02:21.220Z,11.08
2023-02-23T09:04:54.066Z,11.29
2023-02-23T09:07:27.124Z,11.41
2023-02-23T09:09:57.937Z,11.55
2023-02-23T09:12:28.259Z,11.71
2023-02-23T09:14:58.340Z,11.81
2023-02-23T09:17:28.383Z,11.85
2023-02-23T09:19:58.434Z,11.98
2023-02-23T09:22:31.058Z,11.81
2023-02-23T09:25:01.073Z,11.84
2023-02-23T09:27:31.284Z,11.82
2023-02-23T09:30:01.328Z,11.78
2023-02-23T09:32:31.571Z,11.48
2023-02-23T09:35:01.696Z,11.53
2023-02-23T09:37:34.295Z,11.34
2023-02-23T09:40:04.587Z,11.67
2023-02-23T09:42:49.054Z,12.00
2023-02-23T09:45:41.355Z,12.11
2023-02-23T09:48:23.988Z,12.26
2023-02-23T09:50:57.039Z,12.36
2023-02-23T09:53:41.408Z,12.59
2023-02-23T09:56:21.390Z,12.93
2023-02-23T09:58:51.522Z,13.30
2023-02-23T10:01:47.715Z,13.69
2023-02-23T10:04:25.295Z,14.04
2023-02-23T10:07:02.565Z,14.46
2023-02-23T10:09:54.820Z,14.92
2023-02-23T10:12:37.349Z,14.87
2023-02-23T10:15:21.902Z,14.86
2023-02-23T10:18:05.431Z,15.46
2023-02-23T10:20:53.598Z,15.75
2023-02-23T10:23:31.924Z,15.30
2023-02-23T10:26:08.805Z,15.63
2023-02-23T10:28:40.152Z,15.90
2023-02-23T10:31:29.400Z,16.45
2023-02-23T10:34:05.703Z,16.58
2023-02-23T10:36:40.930Z,16.90
2023-02-23T10:39:12.344Z,16.94
2023-02-23T10:41:46.262Z,17.24
2023-02-23T10:44:24.575Z,17.04
2023-02-23T10:47:01.355Z,17.06
2023-02-23T10:49:43.911Z,17.23
2023-02-23T10:52:15.410Z,17.68
2023-02-23T10:54:49.226Z,18.03
2023-02-23T10:57:32.590Z,18.29
2023-02-23T11:00:30.834Z,18.22
2023-02-23T11:03:03.285Z,17.97
2023-02-23T11:05:46.234Z,17.92
2023-02-23T11:08:30.130Z,18.45
2023-02-23T11:11:11.042Z,18.26
2023-02-23T11:13:46.773Z,18.04
2023-02-23T11:16:19.739Z,17.86
2023-02-23T11:18:57.384Z,17.82
2023-02-23T11:21:33.518Z,17.92
2023-02-23T11:24:18.327Z,18.12
2023-02-23T11:26:51.865Z,18.20
2023-02-23T11:29:35.823Z,17.74
2023-02-23T11:32:13.683Z,18.22
2023-02-23T11:34:45.259Z,18.48
2023-02-23T11:37:24.643Z,19.02
2023-02-23T11:39:58.564Z,19.04
2023-02-23T11:42:33.540Z,18.67
2023-02-23T11:45:20.642Z,18.77
2023-02-23T11:47:53.764Z,18.02
2023-02-23T11:50:30.154Z,18.31
2023-02-23T11:53:08.432Z,18.58
2023-02-23T11:55:41.493Z,18.82
2023-02-23T11:58:28.257Z,18.75
2023-02-23T12:01:04.982Z,18.84
2023-02-23T12:03:37.172Z,18.88
2023-02-23T12:06:10.019Z,19.48
2023-02-23T12:08:47.850Z,19.09
2023-02-23T12:11:26.011Z,19.11
2023-02-23T12:14:05.646Z,18.95
2023-02-23T12:16:46.459Z,19.11
2023-02-23T12:19:28.939Z,18.83
2023-02-23T12:22:06.402Z,18.65
2023-02-23T12:24:47.275Z,18.17
2023-02-23T12:27:24.015Z,17.73
2023-02-23T12:30:12.553Z,17.49
2023-02-23T12:32:53.832Z,17.25
2023-02-23T12:35:31.215Z,17.38
2023-02-23T12:38:08.861Z,17.25
2023-02-23T12:40:44.305Z,17.37
2023-02-23T12:43:20.287Z,17.33
2023-02-23T12:45:56.241Z,17.51
2023-02-23T12:48:38.889Z,17.58
2023-02-23T12:51:19.356Z,17.41
2023-02-23T12:53:49.834Z,16.68
2023-02-23T12:56:35.722Z,17.15
2023-02-23T12:59:35.891Z,17.55
2023-02-23T13:02:16.670Z,17.85
2023-02-23T13:05:16.417Z,18.17
2023-02-23T13:07:59.203Z,18.24
2023-02-23T13:10:45.417Z,17.70
2023-02-23T13:13:28.683Z,17.39
2023-02-23T13:16:08.823Z,17.19
2023-02-23T13:18:46.125Z,17.20
2023-02-23T13:21:27.254Z,17.06
2023-02-23T13:24:04.063Z,17.11
2023-02-23T13:26:41.862Z,16.78
2023-02-23T13:29:28.274Z,16.31
2023-02-23T13:31:58.856Z,16.29
2023-02-23T13:34:32.327Z,15.77
2023-02-23T13:37:08.520Z,15.69
2023-02-23T13:39:52.410Z,15.70
2023-02-23T13:42:45.701Z,15.45
2023-02-23T13:45:49.303Z,15.06
2023-02-23T13:48:38.006Z,14.88
2023-02-23T13:51:27.104Z,14.81
2023-02-23T13:54:09.541Z,14.90
2023-02-23T13:56:47.607Z,14.91
2023-02-23T13:59:23.493Z,14.95
2023-02-23T14:01:56.791Z,15.12
2023-02-23T14:04:30.063Z,15.06
2023-02-23T14:07:07.930Z,15.24
2023-02-23T14:09:46.492Z,15.39
2023-02-23T14:12:27.553Z,15.52
2023-02-23T14:14:57.570Z,15.28
2023-02-23T14:17:50.593Z,14.91
2023-02-23T14:20:54.134Z,14.90
2023-02-23T14:23:37.460Z,15.03
2023-02-23T14:26:39.515Z,15.07
2023-02-23T14:29:32.929Z,15.02
2023-02-23T14:32:27.858Z,14.90
2023-02-23T14:35:01.960Z,14.70
2023-02-23T14:37:39.133Z,14.81
2023-02-23T14:40:18.115Z,15.09
2023-02-23T14:42:55.557Z,15.12
2023-02-23T14:45:29.689Z,15.13
2023-02-23T14:48:05.819Z,14.76
2023-02-23T14:50:39.261Z,14.80
2023-02-23T14:53:20.907Z,14.41
2023-02-23T14:55:51.071Z,14.18
2023-02-23T14:58:33.521Z,14.34
2023-02-23T15:01:04.044Z,14.31
2023-02-23T15:03:34.147Z,13.94
2023-02-23T15:06:04.625Z,13.37
2023-02-23T15:08:42.881Z,13.25
2023-02-23T15:11:19.021Z,13.43
2023-02-23T15:13:55.625Z,13.86
2023-02-23T15:16:34.979Z,13.93
2023-02-23T15:19:36.473Z,13.71
2023-02-23T15:22:08.948Z,13.44
2023-02-23T15:24:47.227Z,13.29
2023-02-23T15:27:26.990Z,12.86
2023-02-23T15:29:59.668Z,12.74
2023-02-23T15:32:29.925Z,12.44
2023-02-23T15:35:03.676Z,12.40
2023-02-23T15:37:41.624Z,12.38
2023-02-23T15:40:18.861Z,12.34
2023-02-23T15:42:55.134Z,12.30
2023-02-23T15:45:36.287Z,12.39
2023-02-23T15:48:11.120Z,12.55
2023-02-23T15:50:50.157Z,12.45
2023-02-23T15:53:32.053Z,12.51
2023-02-23T15:56:16.154Z,12.50
2023-02-23T15:58:57.187Z,12.59
2023-02-23T16:01:33.693Z,12.42
2023-02-23T16:04:10.666Z,12.23
2023-02-23T16:06:51.110Z,12.09
2023-02-23T16:09:32.103Z,12.12
2023-02-23T16:12:07.322Z,12.08
2023-02-23T16:14:47.056Z,12.01
2023-02-23T16:17:31.689Z,12.04
2023-02-23T16:20:18.969Z,11.92
2023-02-23T16:22:53.662Z,11.94
2023-02-23T16:25:27.806Z,12.04
2023-02-23T16:28:05.462Z,12.02
2023-02-23T16:30:45.712Z,11.88
2023-02-23T16:33:26.572Z,11.81
2023-02-23T16:36:14.754Z,11.79
2023-02-23T16:38:59.929Z,11.62
2023-02-23T16:41:34.083Z,11.66
2023-02-23T16:44:06.938Z,11.47
2023-02-23T16:46:58.225Z,11.49
2023-02-23T16:49:32.157Z,11.33
2023-02-23T16:52:04.747Z,11.30
2023-02-23T16:54:34.747Z,11.33
2023-02-23T16:57:06.203Z,11.15
2023-02-23T16:59:36.194Z,11.12
2023-02-23T17:02:09.906Z,11.09
2023-02-23T17:04:49.107Z,11.07
2023-02-23T17:07:22.916Z,11.09
2023-02-23T17:09:54.046Z,11.04
2023-02-23T17:12:24.054Z,11.03
2023-02-23T17:14:54.139Z,10.93
2023-02-23T17:17:24.831Z,10.86
2023-02-23T17:19:57.469Z,10.91
2023-02-23T17:22:27.574Z,10.85
2023-02-23T17:24:57.691Z,10.78
2023-02-23T17:27:27.822Z,10.85
2023-02-23T17:29:57.840Z,10.84
2023-02-23T17:32:30.040Z,10.91
2023-02-23T17:35:02.766Z,10.80
2023-02-23T17:37:32.784Z,10.80
2023-02-23T17:40:02.770Z,10.90
2023-02-23T17:42:35.188Z,10.85
2023-02-23T17:45:08.422Z,10.85
2023-02-23T17:47:42.738Z,10.72
2023-02-23T17:50:16.017Z,10.70
2023-02-23T17:52:46.473Z,10.66
2023-02-23T17:55:16.559Z,10.70
2023-02-23T17:57:47.080Z,10.68
2023-02-23T18:00:20.942Z,10.58
2023-02-23T18:02:51.228Z,10.56
2023-02-23T18:05:24.243Z,10.52
2023-02-23T18:07:54.343Z,10.52
2023-02-23T18:10:25.986Z,10.52
2023-02-23T18:12:57.004Z,10.40
2023-02-23T18:15:27.555Z,10.34
2023-02-23T18:17:59.630Z,10.27
2023-02-23T18:20:32.429Z,10.24
2023-02-23T18:23:02.469Z,10.24
2023-02-23T18:25:33.448Z,10.33
2023-02-23T18:28:03.608Z,10.25
2023-02-23T18:30:33.890Z,10.28
2023-02-23T18:33:03.979Z,10.32
2023-02-23T18:35:40.693Z,10.40
2023-02-23T18:38:16.740Z,10.36
2023-02-23T18:40:46.986Z,10.40
2023-02-23T18:43:17.400Z,10.39
2023-02-23T18:45:47.407Z,10.42
2023-02-23T18:48:17.372Z,10.48
2023-02-23T18:50:49.945Z,10.51
2023-02-23T18:53:19.924Z,10.38
2023-02-23T18:55:50.774Z,10.49
2023-02-23T18:58:20.755Z,10.48
2023-02-23T19:00:55.284Z,10.38
2023-02-23T19:03:25.461Z,10.09
2023-02-23T19:05:59.121Z,10.02
2023-02-23T19:08:30.947Z,9.96
2023-02-23T19:11:01.177Z,9.88
2023-02-23T19:13:31.214Z,9.90
2023-02-23T19:16:05.743Z,9.82
2023-02-23T19:18:36.863Z,9.80
2023-02-23T19:21:09.647Z,9.71
2023-02-23T19:23:40.668Z,9.72
2023-02-23T19:26:11.143Z,9.72
2023-02-23T19:28:41.271Z,9.76
2023-02-23T19:31:16.022Z,9.74
2023-02-23T19:33:46.977Z,9.72
2023-02-23T19:36:23.270Z,9.79
2023-02-23T19:38:53.278Z,9.84
2023-02-23T19:41:24.205Z,9.80
2023-02-23T19:43:54.248Z,9.80
2023-02-23T19:46:25.682Z,9.82
2023-02-23T19:48:56.572Z,9.73
2023-02-23T19:51:29.793Z,9.84
2023-02-23T19:54:01.559Z,9.94
2023-02-23T19:56:32.253Z,9.95
2023-02-23T19:59:04.289Z,9.89
2023-02-23T20:01:36.173Z,9.93
2023-02-23T20:04:09.736Z,10.00
2023-02-23T20:06:47.342Z,10.03
2023-02-23T20:09:18.468Z,10.05
2023-02-23T20:11:48.874Z,10.07
2023-02-23T20:14:19.014Z,10.12
2023-02-23T20:16:49.050Z,10.12
2023-02-23T20:19:19.856Z,10.14
2023-02-23T20:21:52.517Z,10.15
2023-02-23T20:24:22.848Z,10.18
2023-02-23T20:26:56.365Z,10.18
2023-02-23T20:29:28.248Z,10.18
2023-02-23T20:32:00.093Z,10.05
2023-02-23T20:34:31.454Z,10.06
2023-02-23T20:37:04.446Z,10.11
2023-02-23T20:39:34.442Z,10.17
2023-02-23T20:42:04.502Z,10.23
2023-02-23T20:44:35.130Z,10.21
2023-02-23T20:47:09.939Z,10.18
2023-02-23T20:49:41.372Z,10.22
2023-02-23T20:52:14.450Z,10.25
2023-02-23T20:54:44.427Z,10.23
2023-02-23T20:57:14.455Z,10.13
2023-02-23T20:59:44.635Z,10.05
2023-02-23T21:02:15.842Z,9.86
2023-02-23T21:04:46.131Z,9.81
2023-02-23T21:07:24.944Z,9.75
2023-02-23T21:09:59.310Z,9.72
2023-02-23T21:12:30.223Z,9.66
2023-02-23T21:15:00.252Z,9.59
2023-02-23T21:17:30.358Z,9.54
2023-02-23T21:20:00.461Z,9.45
2023-02-23T21:22:33.323Z,9.34
2023-02-23T21:25:04.499Z,9.21
2023-02-23T21:27:37.634Z,9.07
2023-02-23T21:30:10.960Z,8.90
2023-02-23T21:32:43.869Z,8.91
2023-02-23T21:35:14.456Z,8.83
2023-02-23T21:37:47.981Z,8.76
2023-02-23T21:40:21.255Z,8.67
2023-02-23T21:42:52.711Z,8.61
2023-02-23T21:45:23.193Z,8.52
2023-02-23T21:47:53.179Z,8.52
2023-02-23T21:50:23.272Z,8.44
2023-02-23T21:52:58.400Z,8.38
2023-02-23T21:55:28.529Z,8.29
2023-02-23T21:57:58.726Z,8.16
2023-02-23T22:00:31.108Z,7.99
2023-02-23T22:03:01.319Z,7.91
2023-02-23T22:05:31.476Z,7.79
2023-02-23T22:08:04.520Z,7.71
2023-02-23T22:10:35.545Z,7.70
2023-02-23T22:13:05.668Z,7.74
2023-02-23T22:15:36.054Z,7.78
2023-02-23T22:18:06.474Z,7.84
2023-02-23T22:20:36.487Z,7.89
2023-02-23T22:23:09.100Z,7.96
2023-02-23T22:25:39.296Z,7.96
2023-02-23T22:28:10.750Z,8.02
2023-02-23T22:30:44.568Z,8.13
2023-02-23T22:33:14.784Z,8.16
2023-02-23T22:35:44.866Z,8.19
2023-02-23T22:38:20.370Z,8.18
2023-02-23T22:40:50.831Z,8.23
2023-02-23T22:43:22.136Z,8.26
2023-02-23T22:45:57.520Z,8.32
2023-02-23T22:48:28.887Z,8.33
2023-02-23T22:50:59.759Z,8.28
2023-02-23T22:53:32.877Z,8.34
2023-02-23T22:56:04.028Z,8.36
2023-02-23T22:58:34.309Z,8.35
2023-02-23T23:01:05.976Z,8.39
2023-02-23T23:03:39.729Z,8.44
2023-02-23T23:06:13.339Z,8.45
2023-02-23T23:08:49.327Z,8.48
2023-02-23T23:11:23.174Z,8.50
2023-02-23T23:14:00.548Z,8.49
2023-02-23T23:16:34.421Z,8.50
2023-02-23T23:19:12.296Z,8.46
2023-02-23T23:21:45.691Z,8.49
2023-02-23T23:24:18.330Z,8.50
2023-02-23T23:26:48.336Z,8.50
2023-02-23T23:29:18.640Z,8.45
2023-02-23T23:31:48.775Z,8.42
2023-02-23T23:34:21.761Z,8.44
2023-02-23T23:36:53.616Z,8.42
2023-02-23T23:39:28.633Z,8.46
2023-02-23T23:41:58.701Z,8.42
2023-02-23T23:44:30.055Z,8.36
2023-02-23T23:47:05.274Z,8.36
2023-02-23T23:49:38.750Z,8.31
2023-02-23T23:52:09.565Z,8.35
2023-02-23T23:54:42.938Z,8.34
2023-02-23T23:57:13.313Z,8.25
2023-02-23T23:59:46.347Z,8.31
